Terminal Aerodrome Forecast
Issued by NWS Dodge City, KS

Home | Current Version | Previous Version | Graphics & Text | Print | Product List | Glossary Off
Versions: 1 2 3 4 5 6 7 8 9 10 11 12 13 14 15 16 17

000
FTUS43 KDDC 200244 AAC
TAFDDC
TAF AMD
KDDC 200244Z 2003/2024 34013KT P6SM OVC010
      TEMPO 2003/2006 3SM -RA BKN008
     FM201600 33013KT P6SM SKC=

USA.gov is the U.S. government's official web portal to all federal, state and local government web resources and services.